createdAt,value
2023-11-26T00:04:03.715Z,2
2023-11-26T00:14:06.809Z,2
2023-11-26T00:24:11.637Z,3
2023-11-26T00:34:16.750Z,3
2023-11-26T00:44:22.512Z,3
2023-11-26T00:54:28.658Z,2
2023-11-26T01:04:34.809Z,3
2023-11-26T01:14:42.271Z,3
2023-11-26T01:24:47.861Z,3
2023-11-26T01:34:53.806Z,4
2023-11-26T01:45:01.679Z,7
2023-11-26T01:55:08.363Z,6
2023-11-26T02:05:14.202Z,3
2023-11-26T02:15:19.596Z,5
2023-11-26T02:25:25.385Z,5
2023-11-26T02:35:31.180Z,6
2023-11-26T02:45:37.959Z,6
2023-11-26T02:55:43.623Z,6
2023-11-26T03:05:50.535Z,3
2023-11-26T03:15:55.603Z,2
2023-11-26T03:26:00.667Z,3
2023-11-26T03:36:06.724Z,4
2023-11-26T03:46:12.881Z,3
2023-11-26T03:56:19.717Z,5
2023-11-26T04:06:25.468Z,8
2023-11-26T04:16:31.515Z,4
2023-11-26T04:26:44.913Z,4
2023-11-26T04:36:43.724Z,9
2023-11-26T04:46:48.989Z,4
2023-11-26T04:56:56.471Z,4
2023-11-26T05:07:01.983Z,5
2023-11-26T05:17:07.789Z,5
2023-11-26T05:27:15.273Z,6
2023-11-26T05:37:21.751Z,4
2023-11-26T05:47:27.742Z,4
2023-11-26T05:57:33.990Z,3
2023-11-26T06:07:39.239Z,4
2023-11-26T06:17:45.147Z,3
2023-11-26T06:27:51.905Z,3
2023-11-26T06:37:57.382Z,4
2023-11-26T06:48:05.303Z,7
2023-11-26T06:58:11.793Z,3
2023-11-26T07:08:17.359Z,4
2023-11-26T07:18:23.524Z,3
2023-11-26T07:28:28.573Z,4
2023-11-26T07:38:35.297Z,7
2023-11-26T07:48:41.787Z,7
2023-11-26T07:58:47.793Z,9
2023-11-26T08:08:55.572Z,12
2023-11-26T08:19:02.586Z,9
2023-11-26T08:29:08.058Z,6
2023-11-26T08:39:14.403Z,3
2023-11-26T08:49:20.454Z,7
2023-11-26T08:59:26.220Z,7
2023-11-26T09:09:31.833Z,6
2023-11-26T09:19:38.669Z,5
2023-11-26T09:29:58.401Z,3
2023-11-26T09:39:49.763Z,4
2023-11-26T09:49:56.307Z,4
2023-11-26T10:00:01.485Z,6
2023-11-26T10:10:07.985Z,4
2023-11-26T10:20:14.905Z,5
2023-11-26T10:30:22.719Z,5
2023-11-26T10:40:29.127Z,6
2023-11-26T10:50:33.818Z,13
2023-11-26T11:00:41.445Z,12
2023-11-26T11:10:42.944Z,5
2023-11-26T11:20:50.169Z,9
2023-11-26T11:30:57.436Z,5
2023-11-26T11:41:03.744Z,5
2023-11-26T11:51:09.051Z,8
2023-11-26T12:01:15.955Z,10
2023-11-26T12:11:21.378Z,7
2023-11-26T12:21:28.047Z,7
2023-11-26T12:31:34.858Z,6
2023-11-26T12:41:41.149Z,6
2023-11-26T12:51:46.767Z,3
2023-11-26T13:01:53.882Z,5
2023-11-26T13:11:59.765Z,5
2023-11-26T13:22:04.693Z,5
2023-11-26T13:32:11.782Z,4
2023-11-26T13:42:16.933Z,8
2023-11-26T13:52:23.393Z,5
2023-11-26T14:02:30.921Z,9
2023-11-26T14:12:37.772Z,6
2023-11-26T14:22:41.859Z,26
2023-11-26T14:32:45.961Z,26
2023-11-26T14:42:50.870Z,5
2023-11-26T14:52:57.611Z,7
2023-11-26T15:03:06.944Z,7
2023-11-26T15:13:09.988Z,7
2023-11-26T15:23:15.003Z,7
2023-11-26T15:33:21.360Z,5
2023-11-26T15:43:28.320Z,6
2023-11-26T15:53:32.567Z,10
2023-11-26T16:03:39.948Z,11
2023-11-26T16:13:44.191Z,27
2023-11-26T16:23:50.507Z,34
2023-11-26T16:33:57.572Z,15
2023-11-26T16:44:03.584Z,8
2023-11-26T16:54:09.890Z,11
2023-11-26T17:04:17.193Z,9
2023-11-26T17:14:23.513Z,12
2023-11-26T17:24:35.984Z,7
2023-11-26T17:34:35.723Z,10
2023-11-26T17:44:42.868Z,9
2023-11-26T17:54:47.096Z,20
2023-11-26T18:04:56.709Z,24
2023-11-26T18:14:59.223Z,14
2023-11-26T18:25:06.349Z,11
2023-11-26T18:35:11.234Z,9
2023-11-26T18:45:17.512Z,7
2023-11-26T18:55:25.872Z,6
2023-11-26T19:05:33.392Z,12
2023-11-26T19:15:38.448Z,10
2023-11-26T19:25:44.388Z,9
2023-11-26T19:35:48.666Z,20
2023-11-26T19:45:55.532Z,10
2023-11-26T19:56:01.180Z,18
2023-11-26T20:06:06.315Z,22
2023-11-26T20:16:14.522Z,22
2023-11-26T20:26:21.714Z,14
2023-11-26T20:36:27.342Z,20
2023-11-26T20:46:34.726Z,6
2023-11-26T20:56:40.324Z,15
2023-11-26T21:06:46.523Z,27
2023-11-26T21:16:52.712Z,16
2023-11-26T21:26:58.077Z,8
2023-11-26T21:37:04.178Z,7
2023-11-26T21:47:25.860Z,4
2023-11-26T21:57:19.223Z,3
2023-11-26T22:07:24.913Z,14
2023-11-26T22:17:33.264Z,17
2023-11-26T22:27:36.110Z,13
2023-11-26T22:37:42.970Z,6
2023-11-26T22:47:48.154Z,3
2023-11-26T22:57:55.842Z,6
2023-11-26T23:08:02.933Z,4
2023-11-26T23:18:09.006Z,3
2023-11-26T23:28:16.568Z,3
2023-11-26T23:38:22.939Z,2
2023-11-26T23:48:29.630Z,2
2023-11-26T23:58:37.070Z,4
